Terminal Aerodrome Forecast
Issued by NWS Bismarck, ND

Home | Current Version | Previous Version | Graphics & Text | Print | Product List | Glossary On
Versions: 1 2 3 4 5 6 7 8 9 10 11 12 13 14 15 16 17 18 19 20
000
FTUS43 KBIS 200500
TAFISN
TAF
KISN 200521Z 2006/2106 00000KT 1/4SM FZFG VV001
      TEMPO 2006/2010 2SM BR OVC002
     FM201000 20004KT 3SM BR BKN008
     FM201400 22005KT P6SM BKN100
     FM201800 24008KT P6SM SCT005 BKN100=

USA.gov is the U.S. government's official web portal to all federal, state and local government web resources and services.